map of YYJ home
YYJ - Airport
Location
City:  Victoria, British Columbia, Canada
Name:Victoria International Airport
ICAO:CYYJ
IATA:YYJ

Details
Type:Airport (Airfield)
Use:Public/Civil, International (customs port of entry)
Latitude:4838'50"N (48.647222)
Longitude:12325'33"W (-123.425832)
Elevation:64 ft (20 m)
Variation:16.04E (WMM2015 magnetic declination)
-0.15 annual change
Runways:3
Longest:6998 ft (2133 m), paved

Time
Time Zone:UTC-8 (DST-7)
Local Time:

Weather
METAR:CYYJ 152100Z 10005KT 30SM FEW240 16/08 A3036 RMK CI1 SLP281
TAF:CYYJ 151738Z 1518/1618 28005KT P6SM FEW012 SCT240
BECMG 1518/1520 05006KT
FM160300 VRB03KT P6SM SKC
RMK NXT FCST BY 160000Z

Related Locations
Nearby:
Farthest:FTU: 10721 mi / 17254 km
Tolagnaro [Maurillac Airport (Fort Dauphin Airport)], MG

Find:

   beyond  
but within

Other Information
Maps:
NOTAMs:
Links:
Sources:

  
  • flag of Canada
  • flag of British Columbia
  

Airport Diagram

Airport diagram for YYJ

Airport diagram PDF

Sectional Chart

Flight Planning
at skyvector.com

Satellite Image

Google Maps Satellite view

 

Copyright © 2004-2018 Karl L. Swartz. All rights reserved.
The Great Circle Mapper name and logo are trademarks of the Great Circle Mapper.
All other trademarks mentioned herein belong to their respective owners.
Please see credits for attibutions and further copyright information.

  Follow gcmap on Facebook Follow gcmap on Twitter Follow gcmap on Google+ GCmap on LinkedIn

hCard Microformat

Geo Microformat